Time;durP1;ratioP1;P1;durP2;ratioP2;P2;SDS_P1;SDS_P2;PMS_P1;PMS_P2;Temp;Humidity;BMP_temperature;BMP_pressure;BME280_temperature;BME280_humidity;BME280_pressure;Samples;Min_cycle;Max_cycle;Signal;HPM_P1;HPM_P2
2023/04/27 00:00:17;;;;;;;8.82;4.15;;;;;;;-144.85;100.00;61331.59;5060280;28;31756;-64
2023/04/27 00:02:45;;;;;;;7.50;4.22;;;;;;;-144.85;100.00;61331.59;5050958;28;31455;-64
2023/04/27 00:05:12;;;;;;;9.20;4.13;;;;;;;-144.85;100.00;61331.59;5059152;28;32376;-64
2023/04/27 00:07:40;;;;;;;11.13;4.63;;;;;;;-144.85;100.00;61331.59;5060742;28;32161;-64
2023/04/27 00:10:08;;;;;;;7.57;4.10;;;;;;;-144.85;100.00;61331.59;5060506;28;30828;-64
2023/04/27 00:12:35;;;;;;;9.52;4.15;;;;;;;-144.85;100.00;61331.59;5058910;28;32148;-64
2023/04/27 00:15:03;;;;;;;8.27;4.10;;;;;;;-144.85;100.00;61331.59;5059155;28;33098;-64
2023/04/27 00:17:31;;;;;;;8.98;4.05;;;;;;;-144.85;100.00;61331.59;5059134;28;32665;-64
2023/04/27 00:19:59;;;;;;;8.07;4.13;;;;;;;-144.85;100.00;61331.59;5060476;28;30512;-64
2023/04/27 00:22:26;;;;;;;7.82;4.00;;;;;;;-144.85;100.00;61331.59;5041073;28;31181;-64
2023/04/27 00:24:53;;;;;;;6.97;4.30;;;;;;;-144.85;100.00;61331.59;5058012;28;33309;-64
2023/04/27 00:27:20;;;;;;;8.93;4.30;;;;;;;-144.85;100.00;61331.59;5057625;28;32161;-64
2023/04/27 00:29:48;;;;;;;9.48;4.05;;;;;;;-144.85;100.00;61331.59;5060280;28;30432;-64
2023/04/27 00:32:15;;;;;;;7.35;4.32;;;;;;;-144.85;100.00;61331.59;5042052;28;31442;-64
2023/04/27 00:34:42;;;;;;;7.03;4.00;;;;;;;-144.85;100.00;61331.59;5058729;28;32204;-64
2023/04/27 00:37:12;;;;;;;8.40;4.28;;;;;;;-144.85;100.00;61331.59;5060619;28;32311;-64
2023/04/27 00:39:39;;;;;;;9.65;4.03;;;;;;;-144.85;100.00;61331.59;5058725;28;31897;-65
2023/04/27 00:42:13;;;;;;;7.05;4.10;;;;;;;-144.85;100.00;61331.59;5071926;28;30215;-64
2023/04/27 00:44:41;;;;;;;6.73;4.03;;;;;;;-144.85;100.00;61331.59;5047608;28;32369;-64
2023/04/27 00:47:09;;;;;;;6.32;4.05;;;;;;;-144.85;100.00;61331.59;5059693;28;32176;-65
2023/04/27 00:49:37;;;;;;;8.02;4.20;;;;;;;-144.85;100.00;61331.59;5067232;28;30496;-65
2023/04/27 00:52:05;;;;;;;8.23;4.45;;;;;;;-144.85;100.00;61331.59;5047972;28;30354;-65
2023/04/27 00:54:32;;;;;;;8.70;4.00;;;;;;;-144.85;100.00;61331.59;5061663;28;32786;-65
2023/04/27 00:56:59;;;;;;;7.18;4.05;;;;;;;-144.85;100.00;61331.59;5058600;28;33180;-64
2023/04/27 00:59:28;;;;;;;6.05;3.80;;;;;;;-144.85;100.00;61331.59;5059511;28;31731;-64
2023/04/27 01:01:55;;;;;;;6.82;3.83;;;;;;;-144.85;100.00;61331.59;5057416;28;33026;-64
2023/04/27 01:04:22;;;;;;;6.65;3.90;;;;;;;-144.85;100.00;61331.59;5059737;28;31258;-65
2023/04/27 01:06:51;;;;;;;8.13;4.05;;;;;;;-144.85;100.00;61331.59;5061809;28;31113;-64
2023/04/27 01:09:18;;;;;;;7.60;4.10;;;;;;;-144.85;100.00;61331.59;5070687;28;31898;-65
2023/04/27 01:11:49;;;;;;;7.93;4.40;;;;;;;-144.85;100.00;61331.59;5057475;28;31631;-65
2023/04/27 01:14:16;;;;;;;8.23;4.03;;;;;;;-144.85;100.00;61331.59;5059291;28;31315;-65
2023/04/27 01:16:45;;;;;;;9.25;4.40;;;;;;;-144.85;100.00;61331.59;5059737;28;32277;-65
2023/04/27 01:19:12;;;;;;;7.13;4.25;;;;;;;-144.85;100.00;61331.59;5058452;28;31913;-69
2023/04/27 01:21:40;;;;;;;10.18;4.35;;;;;;;-144.85;100.00;61331.59;5057970;28;30164;-65
2023/04/27 01:24:07;;;;;;;7.13;4.25;;;;;;;-144.85;100.00;61331.59;5061043;28;32463;-64
2023/04/27 01:26:36;;;;;;;10.23;4.18;;;;;;;-144.85;100.00;61331.59;5071996;28;30850;-64
2023/04/27 01:29:04;;;;;;;8.88;4.35;;;;;;;-144.85;100.00;61331.59;5070752;28;31820;-65
2023/04/27 01:31:31;;;;;;;9.38;4.20;;;;;;;-144.85;100.00;61331.59;5042028;28;30200;-65
2023/04/27 01:33:59;;;;;;;12.30;4.90;;;;;;;-144.85;100.00;61331.59;5060168;28;32683;-64
2023/04/27 01:36:26;;;;;;;7.40;4.68;;;;;;;-144.85;100.00;61331.59;5057738;28;32491;-65
2023/04/27 01:38:55;;;;;;;9.82;4.93;;;;;;;-144.85;100.00;61331.59;5071601;28;31690;-65
2023/04/27 01:41:22;;;;;;;11.38;4.55;;;;;;;-144.85;100.00;61331.59;5041940;28;31407;-64
2023/04/27 01:43:50;;;;;;;8.70;4.78;;;;;;;-144.85;100.00;61331.59;5061006;28;32496;-64
2023/04/27 01:46:17;;;;;;;7.63;4.35;;;;;;;-144.85;100.00;61331.59;5071650;28;33213;-64
2023/04/27 01:48:44;;;;;;;9.43;4.60;;;;;;;-144.85;100.00;61331.59;5070683;28;32862;-65
2023/04/27 01:51:11;;;;;;;7.78;4.85;;;;;;;-144.85;100.00;61331.59;5070293;28;31239;-64
2023/04/27 01:53:40;;;;;;;7.82;4.63;;;;;;;-144.85;100.00;61331.59;5059222;28;33430;-65
2023/04/27 01:56:09;;;;;;;7.40;4.47;;;;;;;-144.85;100.00;61331.59;5058977;28;32532;-64
2023/04/27 01:58:36;;;;;;;7.82;4.43;;;;;;;-144.85;100.00;61331.59;5057697;28;31635;-65
2023/04/27 02:01:04;;;;;;;11.40;5.10;;;;;;;-144.85;100.00;61331.59;5058303;28;30368;-65
2023/04/27 02:03:31;;;;;;;12.43;5.38;;;;;;;-144.85;100.00;61331.59;5058052;28;31409;-64
2023/04/27 02:05:58;;;;;;;6.65;4.53;;;;;;;-144.85;100.00;61331.59;5056997;28;32252;-66
2023/04/27 02:08:26;;;;;;;9.43;5.13;;;;;;;-144.85;100.00;61331.59;5057345;28;32358;-66
2023/04/27 02:10:53;;;;;;;11.23;5.53;;;;;;;-144.85;100.00;61331.59;5056779;28;32572;-64
2023/04/27 02:13:20;;;;;;;9.20;5.03;;;;;;;-144.85;100.00;61331.59;5054461;28;31171;-64
2023/04/27 02:15:47;;;;;;;8.30;5.10;;;;;;;-144.85;100.00;61331.59;5041974;28;31974;-64
2023/04/27 02:18:15;;;;;;;10.13;4.70;;;;;;;-144.85;100.00;61331.59;5058514;28;31671;-64
2023/04/27 02:20:42;;;;;;;10.10;4.82;;;;;;;-144.85;100.00;61331.59;5058410;28;30457;-65
2023/04/27 02:23:10;;;;;;;8.73;4.72;;;;;;;-144.85;100.00;61331.59;5057781;28;32389;-64
2023/04/27 02:25:38;;;;;;;10.45;4.75;;;;;;;-144.85;100.00;61331.59;5059102;28;33180;-64
2023/04/27 02:28:05;;;;;;;7.70;4.35;;;;;;;-144.85;100.00;61331.59;5044244;28;30689;-63
2023/04/27 02:30:33;;;;;;;6.30;4.13;;;;;;;-144.85;100.00;61331.59;5058268;28;31683;-63
2023/04/27 02:33:00;;;;;;;9.80;4.60;;;;;;;-144.85;100.00;61331.59;5042112;28;31244;-63
2023/04/27 02:35:27;;;;;;;8.25;4.55;;;;;;;-144.85;100.00;61331.59;5058345;28;32047;-64
2023/04/27 02:37:54;;;;;;;11.10;4.80;;;;;;;-144.85;100.00;61331.59;5037758;28;30428;-64
2023/04/27 02:40:23;;;;;;;10.77;4.95;;;;;;;-144.85;100.00;61331.59;5063275;28;31450;-64
2023/04/27 02:42:51;;;;;;;13.38;4.80;;;;;;;-144.85;100.00;61331.59;5074961;28;33946;-64
2023/04/27 02:45:18;;;;;;;7.60;4.57;;;;;;;-144.85;100.00;61331.59;5067056;28;30897;-64
2023/04/27 02:47:45;;;;;;;7.38;4.57;;;;;;;-144.85;100.00;61331.59;5057861;28;32549;-63
2023/04/27 02:50:13;;;;;;;9.95;5.30;;;;;;;-144.85;100.00;61331.59;5065815;28;31481;-64
2023/04/27 02:52:40;;;;;;;8.80;5.07;;;;;;;-144.85;100.00;61331.59;5052094;28;32359;-64
2023/04/27 02:55:08;;;;;;;9.30;5.15;;;;;;;-144.85;100.00;61331.59;5046607;28;32093;-64
2023/04/27 02:57:35;;;;;;;9.13;4.97;;;;;;;-144.85;100.00;61331.59;5070452;28;30756;-64
2023/04/27 03:00:05;;;;;;;13.10;4.68;;;;;;;-144.85;100.00;61331.59;5057428;28;31322;-64
2023/04/27 03:02:32;;;;;;;8.85;4.25;;;;;;;-144.85;100.00;61331.59;5056919;28;32591;-63
2023/04/27 03:05:00;;;;;;;7.85;4.53;;;;;;;-144.85;100.00;61331.59;5058254;28;30133;-63
2023/04/27 03:07:27;;;;;;;11.43;4.40;;;;;;;-144.85;100.00;61331.59;5059695;28;31534;-64
2023/04/27 03:09:55;;;;;;;6.30;4.22;;;;;;;-144.85;100.00;61331.59;5053361;28;30360;-63
2023/04/27 03:12:22;;;;;;;8.15;4.65;;;;;;;-144.85;100.00;61331.59;5041518;28;31289;-64
2023/04/27 03:14:49;;;;;;;8.07;4.57;;;;;;;-144.85;100.00;61331.59;5070972;28;31060;-63
2023/04/27 03:17:17;;;;;;;8.45;4.82;;;;;;;-144.85;100.00;61331.59;5041328;28;32038;-63
2023/04/27 03:19:48;;;;;;;11.77;4.78;;;;;;;-144.85;100.00;61331.59;5041279;28;31541;-63
2023/04/27 03:22:15;;;;;;;11.35;5.28;;;;;;;-144.85;100.00;61331.59;5055527;28;33804;-63
2023/04/27 03:24:42;;;;;;;10.43;4.88;;;;;;;-144.85;100.00;61331.59;5056176;28;32191;-63
2023/04/27 03:27:10;;;;;;;8.80;4.60;;;;;;;-144.85;100.00;61331.59;5056425;28;31953;-63
2023/04/27 03:29:38;;;;;;;9.95;4.47;;;;;;;-144.85;100.00;61331.59;5041481;28;29694;-63
2023/04/27 03:32:05;;;;;;;8.18;4.72;;;;;;;-144.85;100.00;61331.59;5055820;28;32533;-63
2023/04/27 03:34:33;;;;;;;8.63;4.57;;;;;;;-144.85;100.00;61331.59;5071412;28;32520;-63
2023/04/27 03:37:00;;;;;;;9.23;5.30;;;;;;;-144.85;100.00;61331.59;5057252;28;30870;-63
2023/04/27 03:39:27;;;;;;;11.88;5.38;;;;;;;-144.85;100.00;61331.59;5055877;28;32290;-63
2023/04/27 03:41:55;;;;;;;9.40;5.00;;;;;;;-144.85;100.00;61331.59;5040647;28;32309;-64
2023/04/27 03:44:22;;;;;;;9.75;4.88;;;;;;;-144.85;100.00;61331.59;5046804;28;31158;-63
2023/04/27 03:46:51;;;;;;;9.32;4.40;;;;;;;-144.85;100.00;61331.59;5046795;28;30914;-63
2023/04/27 03:49:18;;;;;;;9.10;4.50;;;;;;;-144.85;100.00;61331.59;5057473;28;30400;-63
2023/04/27 03:51:45;;;;;;;10.45;5.10;;;;;;;-144.85;100.00;61331.59;5039366;28;31323;-63
2023/04/27 03:54:14;;;;;;;11.30;4.75;;;;;;;-144.85;100.00;61331.59;5046674;28;32264;-63
2023/04/27 03:56:43;;;;;;;9.73;4.95;;;;;;;-144.85;100.00;61331.59;5057219;28;30599;-63
2023/04/27 03:59:10;;;;;;;8.25;4.30;;;;;;;-144.85;100.00;61331.59;5058656;28;30559;-63
2023/04/27 04:01:42;;;;;;;10.15;4.30;;;;;;;-144.85;100.00;61331.59;5060231;28;31352;-63
2023/04/27 04:04:10;;;;;;;10.18;4.43;;;;;;;-144.85;100.00;61331.59;5069007;28;31037;-63
2023/04/27 04:06:37;;;;;;;8.15;4.20;;;;;;;-144.85;100.00;61331.59;5061141;28;32542;-63
2023/04/27 04:09:04;;;;;;;8.52;4.25;;;;;;;-144.85;100.00;61331.59;5060097;28;30281;-63
2023/04/27 04:11:32;;;;;;;11.25;4.30;;;;;;;-144.85;100.00;61331.59;5062421;28;31325;-63
2023/04/27 04:14:02;;;;;;;9.32;4.55;;;;;;;-144.85;100.00;61331.59;5051856;28;32081;-63
2023/04/27 04:16:29;;;;;;;8.05;4.60;;;;;;;-144.85;100.00;61331.59;5061502;28;32849;-63
2023/04/27 04:18:58;;;;;;;11.82;4.43;;;;;;;-144.85;100.00;61331.59;5060247;28;31434;-64
2023/04/27 04:21:26;;;;;;;9.40;4.35;;;;;;;-144.85;100.00;61331.59;5058334;28;32618;-63
2023/04/27 04:23:53;;;;;;;10.43;4.60;;;;;;;-144.85;100.00;61331.59;5071812;28;31175;-63
2023/04/27 04:26:22;;;;;;;16.00;4.38;;;;;;;-144.85;100.00;61331.59;5062130;28;30668;-64
2023/04/27 04:28:49;;;;;;;10.98;4.65;;;;;;;-144.85;100.00;61331.59;5059182;28;31422;-63
2023/04/27 04:31:17;;;;;;;6.75;3.65;;;;;;;-144.85;100.00;61331.59;5044066;28;32442;-63
2023/04/27 04:33:46;;;;;;;9.77;4.50;;;;;;;-144.85;100.00;61331.59;5060438;28;30844;-64
2023/04/27 04:36:14;;;;;;;9.13;4.30;;;;;;;-144.85;100.00;61331.59;5059421;28;31834;-63
2023/04/27 04:38:41;;;;;;;8.73;4.40;;;;;;;-144.85;100.00;61331.59;5060133;28;30472;-65
2023/04/27 04:41:09;;;;;;;6.90;4.00;;;;;;;-144.85;100.00;61331.59;5059234;28;31443;-65
2023/04/27 04:43:36;;;;;;;8.68;4.40;;;;;;;-144.85;100.00;61331.59;5060082;28;32077;-64
2023/04/27 04:46:06;;;;;;;9.43;4.25;;;;;;;-144.85;100.00;61331.59;5043895;28;31571;-64
2023/04/27 04:48:33;;;;;;;11.13;4.05;;;;;;;-144.85;100.00;61331.59;5069502;28;31589;-65
2023/04/27 04:51:01;;;;;;;10.85;4.43;;;;;;;-144.85;100.00;61331.59;5060445;28;32851;-64
2023/04/27 04:53:28;;;;;;;8.15;4.18;;;;;;;-144.85;100.00;61331.59;5059995;28;31321;-64
2023/04/27 04:55:55;;;;;;;11.15;4.65;;;;;;;-144.85;100.00;61331.59;5058320;28;31806;-64
2023/04/27 04:58:22;;;;;;;7.25;3.72;;;;;;;-144.85;100.00;61331.59;5059484;28;31102;-64
2023/04/27 05:00:50;;;;;;;8.98;4.32;;;;;;;-144.85;100.00;61331.59;5057889;28;32752;-63
2023/04/27 05:03:17;;;;;;;7.32;4.43;;;;;;;-144.85;100.00;61331.59;5060886;28;33287;-65
2023/04/27 05:05:47;;;;;;;8.85;4.30;;;;;;;-144.85;100.00;61331.59;5058427;28;32823;-64
2023/04/27 05:08:15;;;;;;;10.35;4.43;;;;;;;-144.85;100.00;61331.59;5058448;28;31850;-64
2023/04/27 05:10:52;;;;;;;11.13;4.72;;;;;;;-144.85;100.00;61331.59;5057072;28;33339;-64
2023/04/27 05:13:20;;;;;;;8.52;4.55;;;;;;;-144.85;100.00;61331.59;5059916;28;32119;-64
2023/04/27 05:15:47;;;;;;;12.68;4.82;;;;;;;-144.85;100.00;61331.59;5058429;28;31756;-64
2023/04/27 05:18:15;;;;;;;10.25;4.60;;;;;;;-144.85;100.00;61331.59;5060071;28;30382;-64
2023/04/27 05:20:42;;;;;;;10.25;4.63;;;;;;;-144.85;100.00;61331.59;5057598;28;33444;-64
2023/04/27 05:23:09;;;;;;;9.25;4.70;;;;;;;-144.85;100.00;61331.59;5059503;28;33114;-64
2023/04/27 05:25:40;;;;;;;10.43;4.80;;;;;;;-144.85;100.00;61331.59;5058376;28;31507;-64
2023/04/27 05:28:08;;;;;;;14.20;4.95;;;;;;;-144.85;100.00;61331.59;5058716;28;31468;-64
2023/04/27 05:30:36;;;;;;;8.68;4.85;;;;;;;-144.85;100.00;61331.59;5059248;28;32816;-64
2023/04/27 05:33:03;;;;;;;10.60;5.10;;;;;;;-144.85;100.00;61331.59;5058747;28;32564;-64
2023/04/27 05:35:32;;;;;;;8.10;4.70;;;;;;;-144.85;100.00;61331.59;5058687;28;31687;-64
2023/04/27 05:37:59;;;;;;;9.45;5.10;;;;;;;-144.85;100.00;61331.59;5045101;28;31629;-64
2023/04/27 05:40:27;;;;;;;9.50;5.00;;;;;;;-144.85;100.00;61331.59;5057808;28;32373;-64
2023/04/27 05:42:55;;;;;;;11.07;5.15;;;;;;;-144.85;100.00;61331.59;5058404;28;32289;-64
2023/04/27 05:45:22;;;;;;;11.93;4.78;;;;;;;-144.85;100.00;61331.59;5056452;28;31628;-64
2023/04/27 05:47:49;;;;;;;9.57;4.72;;;;;;;-144.85;100.00;61331.59;5059139;28;30327;-65
2023/04/27 05:50:17;;;;;;;12.15;5.10;;;;;;;-144.85;100.00;61331.59;5039928;28;32379;-64
2023/04/27 05:52:44;;;;;;;12.18;5.13;;;;;;;-144.85;100.00;61331.59;5057365;28;32073;-64
2023/04/27 05:55:11;;;;;;;14.63;5.10;;;;;;;-144.85;100.00;61331.59;5058495;28;32610;-65
2023/04/27 05:57:38;;;;;;;9.98;4.70;;;;;;;-144.85;100.00;61331.59;5062706;28;31562;-65
2023/04/27 06:00:09;;;;;;;11.45;5.30;;;;;;;-144.85;100.00;61331.59;5065100;28;32281;-64
2023/04/27 06:02:39;;;;;;;11.50;5.20;;;;;;;-144.85;100.00;61331.59;5057109;28;32882;-65
2023/04/27 06:05:07;;;;;;;10.93;5.07;;;;;;;-144.85;100.00;61331.59;5060055;28;32007;-65
2023/04/27 06:07:36;;;;;;;9.52;5.25;;;;;;;-144.85;100.00;61331.59;5052704;28;32537;-65
2023/04/27 06:10:04;;;;;;;8.25;5.13;;;;;;;-144.85;100.00;61331.59;5065078;28;33202;-65
2023/04/27 06:12:31;;;;;;;11.95;5.55;;;;;;;-144.85;100.00;61331.59;5068847;28;32841;-65
2023/04/27 06:14:59;;;;;;;12.55;5.70;;;;;;;-144.85;100.00;61331.59;5056030;28;32727;-65
2023/04/27 06:17:26;;;;;;;13.30;5.60;;;;;;;-144.85;100.00;61331.59;5060191;28;32236;-65
2023/04/27 06:19:53;;;;;;;11.65;5.28;;;;;;;-144.85;100.00;61331.59;5057349;28;33283;-65
2023/04/27 06:22:20;;;;;;;10.73;5.28;;;;;;;-144.85;100.00;61331.59;5056828;28;32450;-65
2023/04/27 06:24:48;;;;;;;10.57;5.45;;;;;;;-144.85;100.00;61331.59;5057339;28;31759;-65
2023/04/27 06:27:15;;;;;;;13.70;5.15;;;;;;;-144.85;100.00;61331.59;5071021;28;31534;-64
2023/04/27 06:29:42;;;;;;;10.05;4.63;;;;;;;-144.85;100.00;61331.59;5042941;28;31046;-68
2023/04/27 06:32:09;;;;;;;9.07;4.95;;;;;;;-144.85;100.00;61331.59;5054733;28;32191;-65
2023/04/27 06:34:37;;;;;;;14.05;4.93;;;;;;;-144.85;100.00;61331.59;5056672;28;32616;-65
2023/04/27 06:37:04;;;;;;;9.90;4.53;;;;;;;-144.85;100.00;61331.59;5057320;28;31527;-65
2023/04/27 06:39:31;;;;;;;12.85;4.97;;;;;;;-144.85;100.00;61331.59;5055639;28;33153;-64
2023/04/27 06:42:03;;;;;;;7.20;4.03;;;;;;;-144.85;100.00;61331.59;5040807;28;32401;-63
2023/04/27 06:44:31;;;;;;;13.35;4.32;;;;;;;-144.85;100.00;61331.59;5057936;28;30736;-64
2023/04/27 06:46:58;;;;;;;6.75;3.65;;;;;;;-144.85;100.00;61331.59;5057452;28;31539;-64
2023/04/27 06:49:26;;;;;;;8.30;3.90;;;;;;;-144.85;100.00;61331.59;5055356;28;32317;-63
2023/04/27 06:51:54;;;;;;;11.13;4.03;;;;;;;-144.85;100.00;61331.59;5056376;28;32988;-64
2023/04/27 06:54:21;;;;;;;9.45;4.25;;;;;;;-144.85;100.00;61331.59;5060726;28;31435;-64
2023/04/27 06:56:48;;;;;;;7.43;3.55;;;;;;;-144.85;100.00;61331.59;5056787;28;31997;-64
2023/04/27 06:59:16;;;;;;;7.70;3.85;;;;;;;-144.85;100.00;61331.59;5057779;28;31279;-64
2023/04/27 07:01:43;;;;;;;9.65;3.70;;;;;;;-144.85;100.00;61331.59;5056899;28;32473;-65
2023/04/27 07:04:10;;;;;;;7.30;3.55;;;;;;;-144.85;100.00;61331.59;5057957;28;32239;-64
2023/04/27 07:06:38;;;;;;;10.55;4.22;;;;;;;-144.85;100.00;61331.59;5057916;28;31436;-64
2023/04/27 07:09:05;;;;;;;5.95;2.92;;;;;;;-144.85;100.00;61331.59;5061726;28;32629;-64
2023/04/27 07:11:54;;;;;;;6.45;3.10;;;;;;;-144.85;100.00;61331.59;5060546;28;31777;-64
2023/04/27 07:14:21;;;;;;;5.75;3.10;;;;;;;-144.85;100.00;61331.59;5057962;28;31687;-64
2023/04/27 07:16:48;;;;;;;7.38;3.10;;;;;;;-144.85;100.00;61331.59;5050737;22;30213;-79
2023/04/27 07:19:15;;;;;;;4.72;3.03;;;;;;;-144.85;100.00;61331.59;5048411;28;32737;-80
2023/04/27 07:21:43;;;;;;;6.85;3.10;;;;;;;-144.85;100.00;61331.59;5034502;28;32962;-79
2023/04/27 07:24:10;;;;;;;6.47;3.10;;;;;;;-144.85;100.00;61331.59;5069725;28;32158;-78
2023/04/27 07:26:37;;;;;;;6.25;3.10;;;;;;;-144.85;100.00;61331.59;5054316;28;32160;-79
2023/04/27 07:29:04;;;;;;;9.30;3.35;;;;;;;-144.85;100.00;61331.59;5040319;28;32595;-79
2023/04/27 07:31:45;;;;;;;8.88;3.40;;;;;;;-144.85;100.00;61331.59;5063229;28;30909;-80
2023/04/27 07:34:12;;;;;;;8.63;3.30;;;;;;;-144.85;100.00;61331.59;5061722;28;32837;-80
2023/04/27 07:36:39;;;;;;;8.20;3.20;;;;;;;-144.85;100.00;61331.59;5077762;28;31632;-80
2023/04/27 07:39:07;;;;;;;7.82;3.70;;;;;;;-144.85;100.00;61331.59;5063241;28;33781;-80
2023/04/27 07:41:34;;;;;;;5.80;3.53;;;;;;;-144.85;100.00;61331.59;5064094;28;35194;-80
2023/04/27 07:44:01;;;;;;;5.82;3.10;;;;;;;-144.85;100.00;61331.59;5075345;28;33189;-80
2023/04/27 07:46:30;;;;;;;7.90;3.00;;;;;;;-144.85;100.00;61331.59;5060779;28;32106;-80
2023/04/27 07:48:59;;;;;;;7.78;3.22;;;;;;;-144.85;100.00;61331.59;5076637;28;32799;-79
2023/04/27 07:51:29;;;;;;;6.00;3.03;;;;;;;-144.85;100.00;61331.59;5061579;28;33414;-80
2023/04/27 07:53:56;;;;;;;6.25;2.95;;;;;;;-144.85;100.00;61331.59;5052721;28;33784;-82
2023/04/27 07:56:23;;;;;;;5.72;3.42;;;;;;;-144.85;100.00;61331.59;5051905;28;32799;-81
2023/04/27 07:58:51;;;;;;;8.18;3.25;;;;;;;-144.85;100.00;61331.59;5051590;28;33278;-80
2023/04/27 08:01:18;;;;;;;7.45;3.70;;;;;;;-144.85;100.00;61331.59;5052107;28;32461;-81
2023/04/27 08:03:47;;;;;;;8.18;3.70;;;;;;;-144.85;100.00;61331.59;5047855;28;32174;-82
2023/04/27 08:06:15;;;;;;;6.38;3.58;;;;;;;-144.85;100.00;61331.59;5045613;28;32082;-80
2023/04/27 08:08:43;;;;;;;8.55;3.30;;;;;;;-144.85;100.00;61331.59;5043605;28;33240;-81
2023/04/27 08:11:11;;;;;;;6.80;3.20;;;;;;;-144.85;100.00;61331.59;5044414;28;31356;-82
2023/04/27 08:13:38;;;;;;;5.93;3.30;;;;;;;-144.85;100.00;61331.59;5027140;28;30857;-82
2023/04/27 08:16:05;;;;;;;6.40;3.40;;;;;;;-144.85;100.00;61331.59;5040676;28;30545;-82
2023/04/27 08:18:33;;;;;;;7.43;3.42;;;;;;;-144.85;100.00;61331.59;5043902;28;32227;-82
2023/04/27 08:21:00;;;;;;;8.52;3.20;;;;;;;-144.85;100.00;61331.59;5059479;28;31312;-81
2023/04/27 08:23:28;;;;;;;5.60;3.45;;;;;;;-144.85;100.00;61331.59;5058284;28;30838;-82
2023/04/27 08:25:56;;;;;;;6.28;3.45;;;;;;;-144.85;100.00;61331.59;5054485;28;30940;-80
2023/04/27 08:28:23;;;;;;;6.47;3.03;;;;;;;-144.85;100.00;61331.59;5039953;28;32498;-83
2023/04/27 08:30:51;;;;;;;5.00;2.83;;;;;;;-144.85;100.00;61331.59;5056436;28;30822;-80
2023/04/27 08:33:18;;;;;;;6.10;3.20;;;;;;;-144.85;100.00;61331.59;5032306;28;31486;-82
2023/04/27 08:35:46;;;;;;;8.13;3.40;;;;;;;-144.85;100.00;61331.59;5041132;28;31327;-81
2023/04/27 08:38:13;;;;;;;6.20;3.58;;;;;;;-144.85;100.00;61331.59;5056529;28;31200;-82
2023/04/27 08:40:44;;;;;;;9.20;3.17;;;;;;;-144.85;100.00;61331.59;5040548;28;31379;-82
2023/04/27 08:43:11;;;;;;;5.82;3.15;;;;;;;-144.85;100.00;61331.59;5053590;28;30859;-81
2023/04/27 08:45:47;;;;;;;5.72;3.10;;;;;;;-144.85;100.00;61331.59;5038053;28;31181;-83
2023/04/27 08:48:14;;;;;;;7.13;3.40;;;;;;;-144.85;100.00;61331.59;5038937;28;32294;-81
2023/04/27 08:50:43;;;;;;;6.85;3.33;;;;;;;-144.85;100.00;61331.59;5056202;28;32305;-83
2023/04/27 08:53:21;;;;;;;6.32;3.50;;;;;;;-144.85;100.00;61331.59;5039904;28;31056;-81
2023/04/27 08:55:49;;;;;;;6.68;3.30;;;;;;;-144.85;100.00;61331.59;5039205;28;31530;-83
2023/04/27 08:58:16;;;;;;;5.75;3.30;;;;;;;-144.85;100.00;61331.59;5044110;28;31936;-82
2023/04/27 09:00:44;;;;;;;6.15;3.75;;;;;;;-144.85;100.00;61331.59;5040970;28;31690;-83
2023/04/27 09:03:22;;;;;;;10.00;3.63;;;;;;;-144.85;100.00;61331.59;5047881;28;31959;-83
2023/04/27 09:05:50;;;;;;;6.53;3.72;;;;;;;-144.85;100.00;61331.59;5036228;28;32358;-82
2023/04/27 09:08:40;;;;;;;7.03;3.25;;;;;;;-144.85;100.00;61331.59;5045162;28;31450;-82
2023/04/27 09:11:07;;;;;;;7.78;3.30;;;;;;;-144.85;100.00;61331.59;5040008;28;32507;-82
2023/04/27 09:13:37;;;;;;;9.23;3.17;;;;;;;-144.85;100.00;61331.59;5067028;28;31904;-82
2023/04/27 09:16:04;;;;;;;5.53;3.28;;;;;;;-144.85;100.00;61331.59;5037653;28;33059;-83
2023/04/27 09:18:36;;;;;;;6.95;3.25;;;;;;;-144.85;100.00;61331.59;5039458;28;32849;-81
2023/04/27 09:21:03;;;;;;;6.20;3.45;;;;;;;-144.85;100.00;61331.59;5037141;28;32189;-82
2023/04/27 09:23:32;;;;;;;6.20;3.20;;;;;;;-144.85;100.00;61331.59;5039749;28;32184;-81
2023/04/27 09:26:02;;;;;;;8.02;3.13;;;;;;;-144.85;100.00;61331.59;5052680;28;30409;-82
2023/04/27 09:28:31;;;;;;;7.63;3.40;;;;;;;-144.85;100.00;61331.59;5038189;28;31390;-83
2023/04/27 09:30:59;;;;;;;6.82;3.22;;;;;;;-144.85;100.00;61331.59;5049195;28;31212;-82
2023/04/27 09:33:28;;;;;;;6.55;3.28;;;;;;;-144.85;100.00;61331.59;5038417;28;30900;-82
2023/04/27 09:36:00;;;;;;;5.38;3.20;;;;;;;-144.85;100.00;61331.59;5039275;28;32671;-83
2023/04/27 09:38:28;;;;;;;4.55;2.78;;;;;;;-144.85;100.00;61331.59;5039871;28;32231;-83
2023/04/27 09:40:56;;;;;;;6.10;2.75;;;;;;;-144.85;100.00;61331.59;5040631;28;32498;-82
2023/04/27 09:43:23;;;;;;;8.45;2.95;;;;;;;-144.85;100.00;61331.59;5035047;28;30919;-83
2023/04/27 09:45:50;;;;;;;6.28;2.95;;;;;;;-144.85;100.00;61331.59;5052442;28;31761;-83
2023/04/27 09:48:20;;;;;;;5.35;3.30;;;;;;;-144.85;100.00;61331.59;5063116;28;32282;-82
2023/04/27 09:50:49;;;;;;;7.00;3.30;;;;;;;-144.85;100.00;61331.59;5058139;28;31389;-82
2023/04/27 09:53:19;;;;;;;6.18;3.05;;;;;;;-144.85;100.00;61331.59;5038344;28;30586;-85
2023/04/27 09:56:07;;;;;;;6.93;2.92;;;;;;;-144.85;100.00;61331.59;5061481;28;30208;-82
2023/04/27 09:59:42;;;;;;;4.50;2.97;;;;;;;-144.85;100.00;61331.59;5060300;28;33591;-84
2023/04/27 10:02:15;;;;;;;5.97;3.42;;;;;;;-144.85;100.00;61331.59;5050692;28;31483;-83
2023/04/27 10:05:29;;;;;;;8.88;3.60;;;;;;;-144.85;100.00;61331.59;5037561;28;31936;-83
2023/04/27 10:07:56;;;;;;;6.85;3.50;;;;;;;-144.85;100.00;61331.59;5053727;28;30681;-82
2023/04/27 10:10:23;;;;;;;6.00;3.33;;;;;;;-144.85;100.00;61331.59;5053587;28;32235;-83
2023/04/27 10:13:00;;;;;;;6.03;3.58;;;;;;;-144.85;100.00;61331.59;5053207;28;32107;-82
2023/04/27 10:15:28;;;;;;;4.50;2.95;;;;;;;-144.85;100.00;61331.59;5043299;28;31654;-82
2023/04/27 10:18:03;;;;;;;5.88;3.40;;;;;;;-144.85;100.00;61331.59;5035560;28;31462;-82
2023/04/27 10:20:33;;;;;;;6.20;3.58;;;;;;;-144.85;100.00;61331.59;5037034;28;31766;-82
2023/04/27 10:23:00;;;;;;;5.70;3.65;;;;;;;-144.85;100.00;61331.59;5046110;28;33404;-83
2023/04/27 10:25:35;;;;;;;4.78;3.50;;;;;;;-144.85;100.00;61331.59;5036546;28;30743;-82
2023/04/27 10:28:03;;;;;;;5.25;3.47;;;;;;;-144.85;100.00;61331.59;5037472;28;32045;-83
2023/04/27 10:30:38;;;;;;;4.57;3.50;;;;;;;-144.85;100.00;61331.59;5052890;28;31443;-82
2023/04/27 10:33:10;;;;;;;4.38;3.53;;;;;;;-144.85;100.00;61331.59;5053160;28;31472;-81
2023/04/27 10:35:38;;;;;;;5.93;3.53;;;;;;;-144.85;100.00;61331.59;5038280;28;31779;-82
2023/04/27 10:38:16;;;;;;;5.15;3.75;;;;;;;-144.85;100.00;61331.59;5053044;28;31407;-85
2023/04/27 10:40:44;;;;;;;7.10;4.00;;;;;;;-144.85;100.00;61331.59;5036557;28;31088;-83
2023/04/27 10:43:16;;;;;;;11.48;3.80;;;;;;;-144.85;100.00;61331.59;5054197;28;31658;-83
2023/04/27 10:45:44;;;;;;;4.57;3.60;;;;;;;-144.85;100.00;61331.59;5041787;28;32236;-81
2023/04/27 10:48:14;;;;;;;8.63;4.15;;;;;;;-144.85;100.00;61331.59;5040682;28;30302;-83
2023/04/27 10:50:43;;;;;;;6.35;3.75;;;;;;;-144.85;100.00;61331.59;5024989;28;31275;-82
2023/04/27 10:53:11;;;;;;;5.47;3.70;;;;;;;-144.85;100.00;61331.59;5045175;28;32190;-82
2023/04/27 10:55:40;;;;;;;5.53;3.53;;;;;;;-144.85;100.00;61331.59;5038394;28;30650;-82
2023/04/27 10:58:07;;;;;;;4.78;3.45;;;;;;;-144.85;100.00;61331.59;5044921;28;30455;-84
2023/04/27 11:00:42;;;;;;;6.63;4.05;;;;;;;-144.85;100.00;61331.59;5042388;28;31411;-83
2023/04/27 11:03:22;;;;;;;10.05;3.78;;;;;;;-144.85;100.00;61331.59;5051759;28;31096;-84
2023/04/27 11:06:02;;;;;;;5.50;3.35;;;;;;;-144.85;100.00;61331.59;5035959;28;33128;-81
2023/04/27 11:08:32;;;;;;;4.93;3.40;;;;;;;-144.85;100.00;61331.59;5038345;28;30402;-82
2023/04/27 11:11:01;;;;;;;5.90;3.40;;;;;;;-144.85;100.00;61331.59;5053581;28;32638;-82
2023/04/27 11:13:31;;;;;;;5.40;3.67;;;;;;;-144.85;100.00;61331.59;5036252;28;31176;-81